sensor_id;sensor_type;location;lat;lon;timestamp;temperature;humidity
8067;DHT22;4076;48.076;9.118;2022-08-19T00:01:25;18.10;99.90
8067;DHT22;4076;48.076;9.118;2022-08-19T00:03:51;18.00;99.90
8067;DHT22;4076;48.076;9.118;2022-08-19T00:06:17;18.00;99.90
8067;DHT22;4076;48.076;9.118;2022-08-19T00:08:43;17.90;99.90
8067;DHT22;4076;48.076;9.118;2022-08-19T00:11:09;17.90;99.90
8067;DHT22;4076;48.076;9.118;2022-08-19T00:13:35;17.90;99.90
8067;DHT22;4076;48.076;9.118;2022-08-19T00:16:01;17.90;99.90
8067;DHT22;4076;48.076;9.118;2022-08-19T00:18:26;17.80;99.90
8067;DHT22;4076;48.076;9.118;2022-08-19T00:20:52;17.80;99.90
8067;DHT22;4076;48.076;9.118;2022-08-19T00:23:18;17.80;99.90
8067;DHT22;4076;48.076;9.118;2022-08-19T00:25:44;17.90;99.90
8067;DHT22;4076;48.076;9.118;2022-08-19T00:28:10;17.80;99.90
8067;DHT22;4076;48.076;9.118;2022-08-19T00:30:36;17.80;99.90
8067;DHT22;4076;48.076;9.118;2022-08-19T00:33:02;17.80;99.90
8067;DHT22;4076;48.076;9.118;2022-08-19T00:35:28;17.70;99.90
8067;DHT22;4076;48.076;9.118;2022-08-19T00:37:55;17.70;99.90
8067;DHT22;4076;48.076;9.118;2022-08-19T00:40:21;17.70;99.90
8067;DHT22;4076;48.076;9.118;2022-08-19T00:42:47;17.70;99.90
8067;DHT22;4076;48.076;9.118;2022-08-19T00:45:18;17.80;99.90
8067;DHT22;4076;48.076;9.118;2022-08-19T00:47:46;17.80;99.90
8067;DHT22;4076;48.076;9.118;2022-08-19T00:50:15;17.80;99.90
8067;DHT22;4076;48.076;9.118;2022-08-19T00:52:45;17.70;99.90
8067;DHT22;4076;48.076;9.118;2022-08-19T00:55:19;17.70;99.90
8067;DHT22;4076;48.076;9.118;2022-08-19T00:57:53;17.70;99.90
8067;DHT22;4076;48.076;9.118;2022-08-19T01:00:21;17.60;99.90
8067;DHT22;4076;48.076;9.118;2022-08-19T01:02:47;17.60;99.90
8067;DHT22;4076;48.076;9.118;2022-08-19T01:05:15;17.70;99.90
8067;DHT22;4076;48.076;9.118;2022-08-19T01:07:44;17.60;99.90
8067;DHT22;4076;48.076;9.118;2022-08-19T01:10:13;17.60;99.90
8067;DHT22;4076;48.076;9.118;2022-08-19T01:12:39;17.50;99.90
8067;DHT22;4076;48.076;9.118;2022-08-19T01:15:07;17.50;99.90
8067;DHT22;4076;48.076;9.118;2022-08-19T01:17:35;17.50;99.90
8067;DHT22;4076;48.076;9.118;2022-08-19T01:20:04;17.40;99.90
8067;DHT22;4076;48.076;9.118;2022-08-19T01:22:49;17.40;99.90
8067;DHT22;4076;48.076;9.118;2022-08-19T01:25:17;17.40;99.90
8067;DHT22;4076;48.076;9.118;2022-08-19T01:27:46;17.50;99.90
8067;DHT22;4076;48.076;9.118;2022-08-19T01:30:17;17.50;99.90
8067;DHT22;4076;48.076;9.118;2022-08-19T01:32:43;17.60;99.90
8067;DHT22;4076;48.076;9.118;2022-08-19T01:35:09;17.50;99.90
8067;DHT22;4076;48.076;9.118;2022-08-19T01:37:43;17.50;99.90
8067;DHT22;4076;48.076;9.118;2022-08-19T01:40:11;17.40;99.90
8067;DHT22;4076;48.076;9.118;2022-08-19T01:42:37;17.40;99.90
8067;DHT22;4076;48.076;9.118;2022-08-19T01:45:03;17.40;99.90
8067;DHT22;4076;48.076;9.118;2022-08-19T01:47:29;17.40;99.90
8067;DHT22;4076;48.076;9.118;2022-08-19T01:49:55;17.40;99.90
8067;DHT22;4076;48.076;9.118;2022-08-19T01:52:20;17.40;99.90
8067;DHT22;4076;48.076;9.118;2022-08-19T01:54:46;17.40;99.90
8067;DHT22;4076;48.076;9.118;2022-08-19T01:57:12;17.40;99.90
8067;DHT22;4076;48.076;9.118;2022-08-19T01:59:40;17.40;99.90
8067;DHT22;4076;48.076;9.118;2022-08-19T02:02:06;17.30;99.90
8067;DHT22;4076;48.076;9.118;2022-08-19T02:04:36;17.30;99.90
8067;DHT22;4076;48.076;9.118;2022-08-19T02:07:04;17.30;99.90
8067;DHT22;4076;48.076;9.118;2022-08-19T02:09:31;17.30;99.90
8067;DHT22;4076;48.076;9.118;2022-08-19T02:11:57;17.20;99.90
8067;DHT22;4076;48.076;9.118;2022-08-19T02:14:23;17.30;99.90
8067;DHT22;4076;48.076;9.118;2022-08-19T02:16:49;17.30;99.90
8067;DHT22;4076;48.076;9.118;2022-08-19T02:19:14;17.30;99.90
8067;DHT22;4076;48.076;9.118;2022-08-19T02:21:40;17.30;99.90
8067;DHT22;4076;48.076;9.118;2022-08-19T02:24:06;17.30;99.90
8067;DHT22;4076;48.076;9.118;2022-08-19T02:26:32;17.40;99.90
8067;DHT22;4076;48.076;9.118;2022-08-19T02:28:58;17.40;99.90
8067;DHT22;4076;48.076;9.118;2022-08-19T02:31:25;17.40;99.90
8067;DHT22;4076;48.076;9.118;2022-08-19T02:33:52;17.40;99.90
8067;DHT22;4076;48.076;9.118;2022-08-19T02:36:18;17.40;99.90
8067;DHT22;4076;48.076;9.118;2022-08-19T02:38:44;17.30;99.90
8067;DHT22;4076;48.076;9.118;2022-08-19T02:41:30;17.40;99.90
8067;DHT22;4076;48.076;9.118;2022-08-19T02:43:58;17.30;99.90
8067;DHT22;4076;48.076;9.118;2022-08-19T02:46:27;17.30;99.90
8067;DHT22;4076;48.076;9.118;2022-08-19T02:48:55;17.30;99.90
8067;DHT22;4076;48.076;9.118;2022-08-19T02:51:35;17.20;99.90
8067;DHT22;4076;48.076;9.118;2022-08-19T02:54:01;17.20;99.90
8067;DHT22;4076;48.076;9.118;2022-08-19T02:56:27;17.30;99.90
8067;DHT22;4076;48.076;9.118;2022-08-19T02:58:54;17.30;99.90
8067;DHT22;4076;48.076;9.118;2022-08-19T03:01:30;17.20;99.90
8067;DHT22;4076;48.076;9.118;2022-08-19T03:03:59;17.20;99.90
8067;DHT22;4076;48.076;9.118;2022-08-19T03:06:26;17.20;99.90
8067;DHT22;4076;48.076;9.118;2022-08-19T03:08:52;17.20;99.90
8067;DHT22;4076;48.076;9.118;2022-08-19T03:11:20;17.20;99.90
8067;DHT22;4076;48.076;9.118;2022-08-19T03:13:47;17.20;99.90
8067;DHT22;4076;48.076;9.118;2022-08-19T03:16:15;17.10;99.90
8067;DHT22;4076;48.076;9.118;2022-08-19T03:18:41;17.10;99.90
8067;DHT22;4076;48.076;9.118;2022-08-19T03:21:07;17.10;99.90
8067;DHT22;4076;48.076;9.118;2022-08-19T03:23:33;17.10;99.90
8067;DHT22;4076;48.076;9.118;2022-08-19T03:26:02;17.00;99.90
8067;DHT22;4076;48.076;9.118;2022-08-19T03:28:28;17.10;99.90
8067;DHT22;4076;48.076;9.118;2022-08-19T03:30:56;17.10;99.90
8067;DHT22;4076;48.076;9.118;2022-08-19T03:33:23;17.10;99.90
8067;DHT22;4076;48.076;9.118;2022-08-19T03:38:28;17.00;99.90
8067;DHT22;4076;48.076;9.118;2022-08-19T03:40:53;17.10;99.90
8067;DHT22;4076;48.076;9.118;2022-08-19T03:43:19;17.00;99.90
8067;DHT22;4076;48.076;9.118;2022-08-19T03:45:44;17.00;99.90
8067;DHT22;4076;48.076;9.118;2022-08-19T03:48:10;17.00;99.90
8067;DHT22;4076;48.076;9.118;2022-08-19T03:50:39;17.00;99.90
8067;DHT22;4076;48.076;9.118;2022-08-19T03:53:06;17.00;99.90
8067;DHT22;4076;48.076;9.118;2022-08-19T03:55:40;17.00;99.90
8067;DHT22;4076;48.076;9.118;2022-08-19T03:58:06;17.00;99.90
8067;DHT22;4076;48.076;9.118;2022-08-19T04:00:32;17.10;99.90
8067;DHT22;4076;48.076;9.118;2022-08-19T04:02:58;17.00;99.90
8067;DHT22;4076;48.076;9.118;2022-08-19T04:05:25;17.00;99.90
8067;DHT22;4076;48.076;9.118;2022-08-19T04:07:52;17.00;99.90
8067;DHT22;4076;48.076;9.118;2022-08-19T04:10:18;17.00;99.90
8067;DHT22;4076;48.076;9.118;2022-08-19T04:12:43;17.00;99.90
8067;DHT22;4076;48.076;9.118;2022-08-19T04:15:09;17.00;99.90
8067;DHT22;4076;48.076;9.118;2022-08-19T04:17:35;17.00;99.90
8067;DHT22;4076;48.076;9.118;2022-08-19T04:20:00;16.90;99.90
8067;DHT22;4076;48.076;9.118;2022-08-19T04:22:26;16.90;99.90
8067;DHT22;4076;48.076;9.118;2022-08-19T04:24:51;16.90;99.90
8067;DHT22;4076;48.076;9.118;2022-08-19T04:27:17;16.90;99.90
8067;DHT22;4076;48.076;9.118;2022-08-19T04:29:42;16.90;99.90
8067;DHT22;4076;48.076;9.118;2022-08-19T04:32:08;16.90;99.90
8067;DHT22;4076;48.076;9.118;2022-08-19T04:34:34;16.90;99.90
8067;DHT22;4076;48.076;9.118;2022-08-19T04:36:59;16.90;99.90
8067;DHT22;4076;48.076;9.118;2022-08-19T04:39:30;16.90;99.90
8067;DHT22;4076;48.076;9.118;2022-08-19T04:42:16;16.90;99.90
8067;DHT22;4076;48.076;9.118;2022-08-19T04:45:00;16.90;99.90
8067;DHT22;4076;48.076;9.118;2022-08-19T04:47:28;16.90;99.90
8067;DHT22;4076;48.076;9.118;2022-08-19T04:49:53;16.90;99.90
8067;DHT22;4076;48.076;9.118;2022-08-19T04:52:19;17.00;99.90
8067;DHT22;4076;48.076;9.118;2022-08-19T04:54:45;17.00;99.90
8067;DHT22;4076;48.076;9.118;2022-08-19T04:57:10;17.00;99.90
8067;DHT22;4076;48.076;9.118;2022-08-19T04:59:37;17.00;99.90
8067;DHT22;4076;48.076;9.118;2022-08-19T05:02:04;17.00;99.90
8067;DHT22;4076;48.076;9.118;2022-08-19T05:04:30;17.00;99.90
8067;DHT22;4076;48.076;9.118;2022-08-19T05:06:57;17.00;99.90
8067;DHT22;4076;48.076;9.118;2022-08-19T05:09:22;17.00;99.90
8067;DHT22;4076;48.076;9.118;2022-08-19T05:11:48;17.00;99.90
8067;DHT22;4076;48.076;9.118;2022-08-19T05:14:16;17.00;99.90
8067;DHT22;4076;48.076;9.118;2022-08-19T05:16:41;17.00;99.90
8067;DHT22;4076;48.076;9.118;2022-08-19T05:19:07;16.90;99.90
8067;DHT22;4076;48.076;9.118;2022-08-19T05:21:51;16.90;99.90
8067;DHT22;4076;48.076;9.118;2022-08-19T05:24:35;16.90;99.90
8067;DHT22;4076;48.076;9.118;2022-08-19T05:27:01;16.90;99.90
8067;DHT22;4076;48.076;9.118;2022-08-19T05:29:29;16.90;99.90
8067;DHT22;4076;48.076;9.118;2022-08-19T05:31:56;16.90;99.90
8067;DHT22;4076;48.076;9.118;2022-08-19T05:34:23;16.90;99.90
8067;DHT22;4076;48.076;9.118;2022-08-19T05:36:55;17.00;99.90
8067;DHT22;4076;48.076;9.118;2022-08-19T05:39:24;17.10;99.90
8067;DHT22;4076;48.076;9.118;2022-08-19T05:41:55;17.10;99.90
8067;DHT22;4076;48.076;9.118;2022-08-19T05:44:23;17.10;99.90
8067;DHT22;4076;48.076;9.118;2022-08-19T05:46:49;17.20;99.90
8067;DHT22;4076;48.076;9.118;2022-08-19T05:49:18;17.30;99.90
8067;DHT22;4076;48.076;9.118;2022-08-19T05:51:44;17.30;99.90
8067;DHT22;4076;48.076;9.118;2022-08-19T05:54:10;17.40;99.90
8067;DHT22;4076;48.076;9.118;2022-08-19T05:56:39;17.40;99.90
8067;DHT22;4076;48.076;9.118;2022-08-19T05:59:05;17.50;99.90
8067;DHT22;4076;48.076;9.118;2022-08-19T06:01:35;17.50;99.90
8067;DHT22;4076;48.076;9.118;2022-08-19T06:04:01;17.50;99.90
8067;DHT22;4076;48.076;9.118;2022-08-19T06:06:27;17.60;99.90
8067;DHT22;4076;48.076;9.118;2022-08-19T06:08:53;17.60;99.90
8067;DHT22;4076;48.076;9.118;2022-08-19T06:11:39;17.60;99.90
8067;DHT22;4076;48.076;9.118;2022-08-19T06:14:10;17.70;99.90
8067;DHT22;4076;48.076;9.118;2022-08-19T06:16:38;17.70;99.90
8067;DHT22;4076;48.076;9.118;2022-08-19T06:19:07;17.80;99.90
8067;DHT22;4076;48.076;9.118;2022-08-19T06:21:34;17.80;99.90
8067;DHT22;4076;48.076;9.118;2022-08-19T06:24:02;17.80;99.90
8067;DHT22;4076;48.076;9.118;2022-08-19T06:26:29;17.80;99.90
8067;DHT22;4076;48.076;9.118;2022-08-19T06:28:54;17.80;99.90
8067;DHT22;4076;48.076;9.118;2022-08-19T06:31:27;17.80;99.90
8067;DHT22;4076;48.076;9.118;2022-08-19T06:33:53;17.90;99.90
8067;DHT22;4076;48.076;9.118;2022-08-19T06:36:27;17.90;99.90
8067;DHT22;4076;48.076;9.118;2022-08-19T06:38:58;17.90;99.90
8067;DHT22;4076;48.076;9.118;2022-08-19T06:41:25;17.90;99.90
8067;DHT22;4076;48.076;9.118;2022-08-19T06:43:51;18.00;99.90
8067;DHT22;4076;48.076;9.118;2022-08-19T06:46:17;18.00;99.90
8067;DHT22;4076;48.076;9.118;2022-08-19T06:48:45;18.00;99.90
8067;DHT22;4076;48.076;9.118;2022-08-19T06:51:11;18.10;99.90
8067;DHT22;4076;48.076;9.118;2022-08-19T06:53:36;18.20;99.90
8067;DHT22;4076;48.076;9.118;2022-08-19T06:56:04;18.20;99.90
8067;DHT22;4076;48.076;9.118;2022-08-19T06:58:30;18.30;99.90
8067;DHT22;4076;48.076;9.118;2022-08-19T07:01:01;18.30;99.90
8067;DHT22;4076;48.076;9.118;2022-08-19T07:03:33;18.30;99.90
8067;DHT22;4076;48.076;9.118;2022-08-19T07:06:12;18.30;99.90
8067;DHT22;4076;48.076;9.118;2022-08-19T07:08:40;18.40;99.90
8067;DHT22;4076;48.076;9.118;2022-08-19T07:11:07;18.40;99.90
8067;DHT22;4076;48.076;9.118;2022-08-19T07:13:34;18.40;99.90
8067;DHT22;4076;48.076;9.118;2022-08-19T07:16:07;18.40;99.90
8067;DHT22;4076;48.076;9.118;2022-08-19T07:18:33;18.40;99.90
8067;DHT22;4076;48.076;9.118;2022-08-19T07:21:06;18.50;99.90
8067;DHT22;4076;48.076;9.118;2022-08-19T07:23:33;18.50;99.90
8067;DHT22;4076;48.076;9.118;2022-08-19T07:26:17;18.50;99.90
8067;DHT22;4076;48.076;9.118;2022-08-19T07:28:44;18.40;99.90
8067;DHT22;4076;48.076;9.118;2022-08-19T07:31:15;18.40;99.90
8067;DHT22;4076;48.076;9.118;2022-08-19T07:33:44;18.40;99.90
8067;DHT22;4076;48.076;9.118;2022-08-19T07:36:12;18.30;99.90
8067;DHT22;4076;48.076;9.118;2022-08-19T07:38:40;18.30;99.90
8067;DHT22;4076;48.076;9.118;2022-08-19T07:41:08;18.20;99.90
8067;DHT22;4076;48.076;9.118;2022-08-19T07:43:34;18.10;99.90
8067;DHT22;4076;48.076;9.118;2022-08-19T07:46:00;18.20;99.90
8067;DHT22;4076;48.076;9.118;2022-08-19T07:48:27;18.10;99.90
8067;DHT22;4076;48.076;9.118;2022-08-19T07:50:57;18.10;99.90
8067;DHT22;4076;48.076;9.118;2022-08-19T07:53:25;18.20;99.90
8067;DHT22;4076;48.076;9.118;2022-08-19T07:55:51;18.10;99.90
8067;DHT22;4076;48.076;9.118;2022-08-19T07:58:20;18.10;99.90
8067;DHT22;4076;48.076;9.118;2022-08-19T08:00:49;18.10;99.90
8067;DHT22;4076;48.076;9.118;2022-08-19T08:03:17;18.10;99.90
8067;DHT22;4076;48.076;9.118;2022-08-19T08:05:43;18.00;99.90
8067;DHT22;4076;48.076;9.118;2022-08-19T08:08:28;18.10;99.90
8067;DHT22;4076;48.076;9.118;2022-08-19T08:11:13;18.10;99.90
8067;DHT22;4076;48.076;9.118;2022-08-19T08:13:39;18.10;99.90
8067;DHT22;4076;48.076;9.118;2022-08-19T08:16:07;18.10;99.90
8067;DHT22;4076;48.076;9.118;2022-08-19T08:18:33;18.10;99.90
8067;DHT22;4076;48.076;9.118;2022-08-19T08:21:06;18.10;99.90
8067;DHT22;4076;48.076;9.118;2022-08-19T08:23:32;18.10;99.90
8067;DHT22;4076;48.076;9.118;2022-08-19T08:25:58;18.10;99.90
8067;DHT22;4076;48.076;9.118;2022-08-19T08:28:26;18.10;99.90
8067;DHT22;4076;48.076;9.118;2022-08-19T08:30:53;18.10;99.90
8067;DHT22;4076;48.076;9.118;2022-08-19T08:33:21;18.10;99.90
8067;DHT22;4076;48.076;9.118;2022-08-19T08:35:47;18.00;99.90
8067;DHT22;4076;48.076;9.118;2022-08-19T08:38:13;18.00;99.90
8067;DHT22;4076;48.076;9.118;2022-08-19T08:43:29;18.10;99.90
8067;DHT22;4076;48.076;9.118;2022-08-19T08:46:29;18.10;99.90
8067;DHT22;4076;48.076;9.118;2022-08-19T08:51:42;18.00;99.90
8067;DHT22;4076;48.076;9.118;2022-08-19T08:54:12;17.90;99.90
8067;DHT22;4076;48.076;9.118;2022-08-19T08:56:39;18.00;99.90
8067;DHT22;4076;48.076;9.118;2022-08-19T08:59:10;18.00;99.90
8067;DHT22;4076;48.076;9.118;2022-08-19T09:01:38;18.00;99.90
8067;DHT22;4076;48.076;9.118;2022-08-19T09:04:07;18.00;99.90
8067;DHT22;4076;48.076;9.118;2022-08-19T09:09:43;17.90;99.90
8067;DHT22;4076;48.076;9.118;2022-08-19T09:15:28;17.90;99.90
8067;DHT22;4076;48.076;9.118;2022-08-19T09:17:59;17.90;99.90
8067;DHT22;4076;48.076;9.118;2022-08-19T09:20:26;18.00;99.90
8067;DHT22;4076;48.076;9.118;2022-08-19T09:22:52;18.00;99.90
8067;DHT22;4076;48.076;9.118;2022-08-19T09:25:21;18.00;99.90
8067;DHT22;4076;48.076;9.118;2022-08-19T09:27:49;18.00;99.90
8067;DHT22;4076;48.076;9.118;2022-08-19T09:30:19;18.10;99.90
8067;DHT22;4076;48.076;9.118;2022-08-19T09:32:46;18.10;99.90
8067;DHT22;4076;48.076;9.118;2022-08-19T09:35:13;18.10;99.90
8067;DHT22;4076;48.076;9.118;2022-08-19T09:37:40;18.10;99.90
8067;DHT22;4076;48.076;9.118;2022-08-19T09:40:06;18.20;99.90
8067;DHT22;4076;48.076;9.118;2022-08-19T09:42:32;18.20;99.90
8067;DHT22;4076;48.076;9.118;2022-08-19T09:44:59;18.20;99.90
8067;DHT22;4076;48.076;9.118;2022-08-19T09:47:25;18.20;99.90
8067;DHT22;4076;48.076;9.118;2022-08-19T09:49:50;18.20;99.90
8067;DHT22;4076;48.076;9.118;2022-08-19T09:52:16;18.20;99.90
8067;DHT22;4076;48.076;9.118;2022-08-19T09:54:42;18.10;99.90
8067;DHT22;4076;48.076;9.118;2022-08-19T09:57:07;18.10;99.90
8067;DHT22;4076;48.076;9.118;2022-08-19T09:59:33;18.10;99.90
8067;DHT22;4076;48.076;9.118;2022-08-19T10:01:59;18.10;99.90
8067;DHT22;4076;48.076;9.118;2022-08-19T10:04:25;18.10;99.90
8067;DHT22;4076;48.076;9.118;2022-08-19T10:07:10;18.10;99.90
8067;DHT22;4076;48.076;9.118;2022-08-19T10:09:36;18.00;99.90
8067;DHT22;4076;48.076;9.118;2022-08-19T10:12:03;18.00;99.90
8067;DHT22;4076;48.076;9.118;2022-08-19T10:14:30;18.00;99.90
8067;DHT22;4076;48.076;9.118;2022-08-19T10:16:55;18.00;99.90
8067;DHT22;4076;48.076;9.118;2022-08-19T10:19:21;18.00;99.90
8067;DHT22;4076;48.076;9.118;2022-08-19T10:21:47;18.00;99.90
8067;DHT22;4076;48.076;9.118;2022-08-19T10:24:12;17.90;99.90
8067;DHT22;4076;48.076;9.118;2022-08-19T10:26:39;17.90;99.90
8067;DHT22;4076;48.076;9.118;2022-08-19T10:29:10;17.90;99.90
8067;DHT22;4076;48.076;9.118;2022-08-19T10:31:37;18.00;99.90
8067;DHT22;4076;48.076;9.118;2022-08-19T10:34:02;17.90;99.90
8067;DHT22;4076;48.076;9.118;2022-08-19T10:36:31;17.90;99.90
8067;DHT22;4076;48.076;9.118;2022-08-19T10:38:59;17.90;99.90
8067;DHT22;4076;48.076;9.118;2022-08-19T10:41:28;17.90;99.90
8067;DHT22;4076;48.076;9.118;2022-08-19T10:44:00;17.90;99.90
8067;DHT22;4076;48.076;9.118;2022-08-19T10:46:27;18.00;99.90
8067;DHT22;4076;48.076;9.118;2022-08-19T10:48:53;18.00;99.90
8067;DHT22;4076;48.076;9.118;2022-08-19T10:51:20;18.00;99.90
8067;DHT22;4076;48.076;9.118;2022-08-19T10:54:05;18.10;99.90
8067;DHT22;4076;48.076;9.118;2022-08-19T10:56:32;18.10;99.90
8067;DHT22;4076;48.076;9.118;2022-08-19T10:59:21;18.10;99.90
8067;DHT22;4076;48.076;9.118;2022-08-19T11:01:48;18.20;99.90
8067;DHT22;4076;48.076;9.118;2022-08-19T11:04:14;18.10;99.90
8067;DHT22;4076;48.076;9.118;2022-08-19T11:06:44;18.10;99.90
8067;DHT22;4076;48.076;9.118;2022-08-19T11:09:11;18.20;99.90
8067;DHT22;4076;48.076;9.118;2022-08-19T11:11:37;18.20;99.90
8067;DHT22;4076;48.076;9.118;2022-08-19T11:14:11;18.20;99.90
8067;DHT22;4076;48.076;9.118;2022-08-19T11:16:37;18.20;99.90
8067;DHT22;4076;48.076;9.118;2022-08-19T11:19:06;18.10;99.90
8067;DHT22;4076;48.076;9.118;2022-08-19T11:21:35;18.20;99.90
8067;DHT22;4076;48.076;9.118;2022-08-19T11:24:04;18.20;99.90
8067;DHT22;4076;48.076;9.118;2022-08-19T11:26:34;18.10;99.90
8067;DHT22;4076;48.076;9.118;2022-08-19T11:29:00;18.10;99.90
8067;DHT22;4076;48.076;9.118;2022-08-19T11:31:29;18.10;99.90
8067;DHT22;4076;48.076;9.118;2022-08-19T11:34:00;18.10;99.90
8067;DHT22;4076;48.076;9.118;2022-08-19T11:36:27;18.10;99.90
8067;DHT22;4076;48.076;9.118;2022-08-19T11:38:53;18.20;99.90
8067;DHT22;4076;48.076;9.118;2022-08-19T11:41:21;18.20;99.90
8067;DHT22;4076;48.076;9.118;2022-08-19T11:43:52;18.20;99.90
8067;DHT22;4076;48.076;9.118;2022-08-19T11:46:21;18.30;99.90
8067;DHT22;4076;48.076;9.118;2022-08-19T11:48:48;18.40;99.90
8067;DHT22;4076;48.076;9.118;2022-08-19T11:51:21;18.50;99.90
8067;DHT22;4076;48.076;9.118;2022-08-19T11:53:48;18.50;99.90
8067;DHT22;4076;48.076;9.118;2022-08-19T11:56:14;18.50;99.90
8067;DHT22;4076;48.076;9.118;2022-08-19T11:58:40;18.50;99.90
8067;DHT22;4076;48.076;9.118;2022-08-19T12:01:10;18.50;99.90
8067;DHT22;4076;48.076;9.118;2022-08-19T12:03:36;18.50;99.90
8067;DHT22;4076;48.076;9.118;2022-08-19T12:06:06;18.50;99.90
8067;DHT22;4076;48.076;9.118;2022-08-19T12:08:33;18.50;99.90
8067;DHT22;4076;48.076;9.118;2022-08-19T12:10:58;18.50;99.90
8067;DHT22;4076;48.076;9.118;2022-08-19T12:13:28;18.50;99.90
8067;DHT22;4076;48.076;9.118;2022-08-19T12:15:54;18.50;99.90
8067;DHT22;4076;48.076;9.118;2022-08-19T12:18:19;18.40;99.90
8067;DHT22;4076;48.076;9.118;2022-08-19T12:20:45;18.40;99.90
8067;DHT22;4076;48.076;9.118;2022-08-19T12:23:11;18.40;99.90
8067;DHT22;4076;48.076;9.118;2022-08-19T12:25:43;18.30;99.90
8067;DHT22;4076;48.076;9.118;2022-08-19T12:28:18;18.30;99.90
8067;DHT22;4076;48.076;9.118;2022-08-19T12:30:44;18.30;99.90
8067;DHT22;4076;48.076;9.118;2022-08-19T12:33:10;18.40;99.90
8067;DHT22;4076;48.076;9.118;2022-08-19T12:35:38;18.40;99.90
8067;DHT22;4076;48.076;9.118;2022-08-19T12:38:04;18.50;99.90
8067;DHT22;4076;48.076;9.118;2022-08-19T12:40:30;18.50;99.90
8067;DHT22;4076;48.076;9.118;2022-08-19T12:42:55;18.50;99.90
8067;DHT22;4076;48.076;9.118;2022-08-19T12:45:21;18.50;99.90
8067;DHT22;4076;48.076;9.118;2022-08-19T12:47:47;18.50;99.90
8067;DHT22;4076;48.076;9.118;2022-08-19T12:50:13;18.60;99.90
8067;DHT22;4076;48.076;9.118;2022-08-19T12:52:39;18.60;99.90
8067;DHT22;4076;48.076;9.118;2022-08-19T12:55:06;18.70;99.90
8067;DHT22;4076;48.076;9.118;2022-08-19T12:57:32;18.70;99.90
8067;DHT22;4076;48.076;9.118;2022-08-19T13:00:14;18.70;99.90
8067;DHT22;4076;48.076;9.118;2022-08-19T13:02:42;18.90;99.90
8067;DHT22;4076;48.076;9.118;2022-08-19T13:05:17;18.90;99.90
8067;DHT22;4076;48.076;9.118;2022-08-19T13:07:45;18.80;99.90
8067;DHT22;4076;48.076;9.118;2022-08-19T13:10:14;18.80;99.90
8067;DHT22;4076;48.076;9.118;2022-08-19T13:12:43;18.80;99.90
8067;DHT22;4076;48.076;9.118;2022-08-19T13:15:09;18.70;99.90
8067;DHT22;4076;48.076;9.118;2022-08-19T13:17:35;18.70;99.90
8067;DHT22;4076;48.076;9.118;2022-08-19T13:20:02;18.60;99.90
8067;DHT22;4076;48.076;9.118;2022-08-19T13:22:29;18.60;99.90
8067;DHT22;4076;48.076;9.118;2022-08-19T13:24:55;18.60;99.90
8067;DHT22;4076;48.076;9.118;2022-08-19T13:27:20;18.70;99.90
8067;DHT22;4076;48.076;9.118;2022-08-19T13:29:46;18.80;99.90
8067;DHT22;4076;48.076;9.118;2022-08-19T13:32:30;18.80;99.90
8067;DHT22;4076;48.076;9.118;2022-08-19T13:35:15;18.80;99.90
8067;DHT22;4076;48.076;9.118;2022-08-19T13:37:41;18.90;99.90
8067;DHT22;4076;48.076;9.118;2022-08-19T13:40:08;18.90;99.90
8067;DHT22;4076;48.076;9.118;2022-08-19T13:42:40;18.80;99.90
8067;DHT22;4076;48.076;9.118;2022-08-19T13:45:07;18.80;99.90
8067;DHT22;4076;48.076;9.118;2022-08-19T13:47:33;18.80;99.90
8067;DHT22;4076;48.076;9.118;2022-08-19T13:50:08;18.80;99.90
8067;DHT22;4076;48.076;9.118;2022-08-19T13:52:35;18.80;99.90
8067;DHT22;4076;48.076;9.118;2022-08-19T13:55:00;18.80;99.90
8067;DHT22;4076;48.076;9.118;2022-08-19T13:57:26;18.80;99.90
8067;DHT22;4076;48.076;9.118;2022-08-19T13:59:51;18.80;99.90
8067;DHT22;4076;48.076;9.118;2022-08-19T14:02:17;18.80;99.90
8067;DHT22;4076;48.076;9.118;2022-08-19T14:04:42;18.90;99.90
8067;DHT22;4076;48.076;9.118;2022-08-19T14:07:08;18.90;99.90
8067;DHT22;4076;48.076;9.118;2022-08-19T14:09:34;19.00;99.90
8067;DHT22;4076;48.076;9.118;2022-08-19T14:12:00;19.00;99.90
8067;DHT22;4076;48.076;9.118;2022-08-19T14:14:25;19.00;99.90
8067;DHT22;4076;48.076;9.118;2022-08-19T14:16:51;19.00;99.90
8067;DHT22;4076;48.076;9.118;2022-08-19T14:19:17;19.00;99.90
8067;DHT22;4076;48.076;9.118;2022-08-19T14:21:42;19.00;99.90
8067;DHT22;4076;48.076;9.118;2022-08-19T14:24:09;19.00;99.90
8067;DHT22;4076;48.076;9.118;2022-08-19T14:26:34;19.10;99.90
8067;DHT22;4076;48.076;9.118;2022-08-19T14:29:00;19.10;99.90
8067;DHT22;4076;48.076;9.118;2022-08-19T14:31:27;19.10;99.90
8067;DHT22;4076;48.076;9.118;2022-08-19T14:33:52;19.10;99.90
8067;DHT22;4076;48.076;9.118;2022-08-19T14:36:19;19.10;99.90
8067;DHT22;4076;48.076;9.118;2022-08-19T14:38:46;19.20;99.90
8067;DHT22;4076;48.076;9.118;2022-08-19T14:41:16;19.20;99.90
8067;DHT22;4076;48.076;9.118;2022-08-19T14:43:43;19.20;99.90
8067;DHT22;4076;48.076;9.118;2022-08-19T14:46:12;19.20;99.90
8067;DHT22;4076;48.076;9.118;2022-08-19T14:48:38;19.30;99.90
8067;DHT22;4076;48.076;9.118;2022-08-19T14:51:05;19.20;99.90
8067;DHT22;4076;48.076;9.118;2022-08-19T14:53:31;19.20;99.90
8067;DHT22;4076;48.076;9.118;2022-08-19T14:55:59;19.20;99.90
8067;DHT22;4076;48.076;9.118;2022-08-19T14:58:25;19.20;99.90
8067;DHT22;4076;48.076;9.118;2022-08-19T15:00:51;19.30;99.90
8067;DHT22;4076;48.076;9.118;2022-08-19T15:03:17;19.30;99.90
8067;DHT22;4076;48.076;9.118;2022-08-19T15:05:42;19.20;99.90
8067;DHT22;4076;48.076;9.118;2022-08-19T15:08:08;19.20;99.90
8067;DHT22;4076;48.076;9.118;2022-08-19T15:10:33;19.20;99.90
8067;DHT22;4076;48.076;9.118;2022-08-19T15:12:59;19.20;99.90
8067;DHT22;4076;48.076;9.118;2022-08-19T15:15:25;19.10;99.90
8067;DHT22;4076;48.076;9.118;2022-08-19T15:17:51;19.00;99.90
8067;DHT22;4076;48.076;9.118;2022-08-19T15:20:19;19.00;99.90
8067;DHT22;4076;48.076;9.118;2022-08-19T15:22:45;19.00;99.90
8067;DHT22;4076;48.076;9.118;2022-08-19T15:25:13;18.90;99.90
8067;DHT22;4076;48.076;9.118;2022-08-19T15:27:39;18.90;99.90
8067;DHT22;4076;48.076;9.118;2022-08-19T15:30:06;18.90;99.90
8067;DHT22;4076;48.076;9.118;2022-08-19T15:32:33;18.90;99.90
8067;DHT22;4076;48.076;9.118;2022-08-19T15:34:59;18.90;99.90
8067;DHT22;4076;48.076;9.118;2022-08-19T15:37:27;18.90;99.90
8067;DHT22;4076;48.076;9.118;2022-08-19T15:39:53;18.80;99.90
8067;DHT22;4076;48.076;9.118;2022-08-19T15:42:18;18.90;99.90
8067;DHT22;4076;48.076;9.118;2022-08-19T15:44:46;18.90;99.90
8067;DHT22;4076;48.076;9.118;2022-08-19T15:47:12;18.80;99.90
8067;DHT22;4076;48.076;9.118;2022-08-19T15:49:38;18.80;99.90
8067;DHT22;4076;48.076;9.118;2022-08-19T15:52:04;18.80;99.90
8067;DHT22;4076;48.076;9.118;2022-08-19T15:54:31;18.80;99.90
8067;DHT22;4076;48.076;9.118;2022-08-19T15:56:57;18.80;99.90
8067;DHT22;4076;48.076;9.118;2022-08-19T15:59:41;18.80;99.90
8067;DHT22;4076;48.076;9.118;2022-08-19T16:02:26;18.80;99.90
8067;DHT22;4076;48.076;9.118;2022-08-19T16:05:14;18.80;99.90
8067;DHT22;4076;48.076;9.118;2022-08-19T16:07:58;18.90;99.90
8067;DHT22;4076;48.076;9.118;2022-08-19T16:10:25;18.90;99.90
8067;DHT22;4076;48.076;9.118;2022-08-19T16:12:51;18.90;99.90
8067;DHT22;4076;48.076;9.118;2022-08-19T16:15:16;18.90;99.90
8067;DHT22;4076;48.076;9.118;2022-08-19T16:17:42;19.00;99.90
8067;DHT22;4076;48.076;9.118;2022-08-19T16:20:09;19.00;99.90
8067;DHT22;4076;48.076;9.118;2022-08-19T16:22:36;19.00;99.90